메인 페이지
METAR-TAF:

METAR-TAF

공항 :

야프 섬, 미크로네시아

야프 국제공항

위도: 09-29N, 경도: 138-05E, 고도: 28m

현재 날씨관측

예보는 1 시간 5분 전, 23:52시(UTC)에 발표되었습니다.
동북동10kt
온도 28°C
습도 84%
기압 1012 hPa
시정: 19.3km
고도 1600ft 상공 구름 조금
고도 13000ft 상공 구름 많음
고도 30000ft 상공 구름 많음

METAR: PTYA 172352Z 07010KT 12SM FEW016 BKN130 BKN300 28/25 A2987 RMK SLP117 60010 8/171 T02760247 10276 20243 51007

시각: 10:57 (00:57 UTC)

예보

예보는 1 시간 35분 전, 23:22시(UTC)에 발표되었습니다.
예보 대상 시간: 18일 00시부터 18일 24시까지 (UTC)
동북동8kt
시정: 10km
고도 1600ft 상공 구름 조금
고도 4000ft 상공 구름 보통
고도 14000ft 상공 구름 보통
시계 내 소나기
18일 0300시부터 (UTC)
동북동12kt
시정: 10km
고도 1800ft 상공 구름 조금
고도 5000ft 상공 구름 보통

TAF: PTYA 172322Z 1800/1824 06008KT P6SM VCSH FEW016 SCT040 SCT140 FM180300 06012KT P6SM FEW018 SCT050

4,000개 이상의 공항 관측 자료 및 예보 (METAR 및 TAF 보고).

지도상에서 검색 가능한 기상관측소가 노란 점과 빨간 점으로 표시되어 있습니다.

기상관측소 명을 보려면 표시 위로 마우스를 이동하세요.

날씨 관측과 예보를 보려면 클릭하세요.

지도 변경 : 확대하려면 엑스 표시가 있는 녹색 버튼, 축소하려면 빼기 표시가 있는 녹색 버튼, 다음 페이지의 지도를 보려면 녹색 화살표를 클릭하세요.


METAR-TAF: